Canonbie, United Kingdom
Current Conditions -  °F | °C
As of 7:20 AM on Sunday 23 Nov 2014 (Local Time) from EGNT Reporting Station
Few Clouds Few Clouds  
Wind Chill: 42°   Ceiling: Unl
Heat Index: 45°   Visibility: 6mi
Dew Point: 43°   Wind: 5mph
Humidity: 93%   Direction: 310°NW
Pressure: 29.97"   Gusts: NA
Location:  55.08°N, 2.94°W
Report Text: EGNT 230720Z 31004KT 9999 FEW030 07/06 Q1015
Loading
Personal Weather Stations






























Interactive Weather Map New forecast layout! Learn more

10-Day Weather Forecast

Advertisements
Track Severe Weather on mobile